sensor_id;sensor_type;location;lat;lon;timestamp;pressure;altitude;pressure_sealevel;temperature;humidity
4085;BME280;2057;50.858;6.572;2023-04-03T00:01:05;101596.63;;;4.26;93.56
4085;BME280;2057;50.858;6.572;2023-04-03T00:03:31;101598.28;;;4.25;93.46
4085;BME280;2057;50.858;6.572;2023-04-03T00:05:56;101606.38;;;4.31;93.01
4085;BME280;2057;50.858;6.572;2023-04-03T00:08:22;101602.25;;;4.32;93.05
4085;BME280;2057;50.858;6.572;2023-04-03T00:10:48;101602.63;;;4.45;92.64
4085;BME280;2057;50.858;6.572;2023-04-03T00:13:13;101600.44;;;4.39;92.59
4085;BME280;2057;50.858;6.572;2023-04-03T00:15:40;101601.94;;;4.37;91.91
4085;BME280;2057;50.858;6.572;2023-04-03T00:18:06;101599.44;;;4.37;91.55
4085;BME280;2057;50.858;6.572;2023-04-03T00:20:32;101595.69;;;4.43;91.26
4085;BME280;2057;50.858;6.572;2023-04-03T00:22:58;101594.34;;;4.46;91.77
4085;BME280;2057;50.858;6.572;2023-04-03T00:25:23;101602.31;;;4.51;91.00
4085;BME280;2057;50.858;6.572;2023-04-03T00:27:49;101598.72;;;4.58;90.49
4085;BME280;2057;50.858;6.572;2023-04-03T00:30:17;101607.75;;;4.55;90.49
4085;BME280;2057;50.858;6.572;2023-04-03T00:32:42;101605.34;;;4.66;89.21
4085;BME280;2057;50.858;6.572;2023-04-03T00:35:08;101603.66;;;4.47;90.42
4085;BME280;2057;50.858;6.572;2023-04-03T00:37:34;101593.72;;;4.49;90.57
4085;BME280;2057;50.858;6.572;2023-04-03T00:40:00;101597.56;;;4.54;90.29
4085;BME280;2057;50.858;6.572;2023-04-03T00:42:25;101590.94;;;4.46;89.88
4085;BME280;2057;50.858;6.572;2023-04-03T00:47:22;101601.88;;;4.46;90.70
4085;BME280;2057;50.858;6.572;2023-04-03T00:49:49;101599.25;;;4.45;90.64
4085;BME280;2057;50.858;6.572;2023-04-03T00:52:17;101598.94;;;4.42;90.87
4085;BME280;2057;50.858;6.572;2023-04-03T00:54:45;101602.69;;;4.36;90.53
4085;BME280;2057;50.858;6.572;2023-04-03T00:57:13;101603.09;;;4.41;90.01
4085;BME280;2057;50.858;6.572;2023-04-03T00:59:42;101598.66;;;4.38;89.69
4085;BME280;2057;50.858;6.572;2023-04-03T01:02:09;101604.03;;;4.33;90.10
4085;BME280;2057;50.858;6.572;2023-04-03T01:04:37;101601.78;;;4.36;91.09
4085;BME280;2057;50.858;6.572;2023-04-03T01:07:17;101594.66;;;4.40;91.31
4085;BME280;2057;50.858;6.572;2023-04-03T01:09:44;101598.09;;;4.32;91.05
4085;BME280;2057;50.858;6.572;2023-04-03T01:14:55;101593.78;;;4.40;91.85
4085;BME280;2057;50.858;6.572;2023-04-03T01:25:46;101596.44;;;4.05;89.25
4085;BME280;2057;50.858;6.572;2023-04-03T01:28:15;101587.66;;;4.19;90.30
4085;BME280;2057;50.858;6.572;2023-04-03T01:30:46;101592.97;;;4.22;90.89
4085;BME280;2057;50.858;6.572;2023-04-03T01:33:13;101588.09;;;4.23;91.03
4085;BME280;2057;50.858;6.572;2023-04-03T01:35:39;101597.53;;;4.26;91.22
4085;BME280;2057;50.858;6.572;2023-04-03T01:38:04;101594.28;;;4.27;91.49
4085;BME280;2057;50.858;6.572;2023-04-03T01:40:30;101596.97;;;4.20;91.03
4085;BME280;2057;50.858;6.572;2023-04-03T01:42:55;101602.00;;;4.20;91.20
4085;BME280;2057;50.858;6.572;2023-04-03T01:45:20;101598.63;;;4.11;91.10
4085;BME280;2057;50.858;6.572;2023-04-03T01:47:46;101602.94;;;4.03;91.41
4085;BME280;2057;50.858;6.572;2023-04-03T01:50:11;101602.63;;;4.00;90.75
4085;BME280;2057;50.858;6.572;2023-04-03T01:52:36;101610.38;;;3.84;91.17
4085;BME280;2057;50.858;6.572;2023-04-03T01:55:02;101605.84;;;3.71;92.00
4085;BME280;2057;50.858;6.572;2023-04-03T01:57:27;101602.53;;;3.81;92.73
4085;BME280;2057;50.858;6.572;2023-04-03T01:59:53;101602.69;;;3.91;92.63
4085;BME280;2057;50.858;6.572;2023-04-03T02:02:18;101611.81;;;3.90;92.02
4085;BME280;2057;50.858;6.572;2023-04-03T02:04:45;101606.22;;;3.84;92.15
4085;BME280;2057;50.858;6.572;2023-04-03T02:07:10;101605.66;;;3.78;92.57
4085;BME280;2057;50.858;6.572;2023-04-03T02:09:36;101608.03;;;3.76;92.21
4085;BME280;2057;50.858;6.572;2023-04-03T02:12:04;101608.31;;;3.80;91.83
4085;BME280;2057;50.858;6.572;2023-04-03T02:14:29;101611.28;;;3.75;91.91
4085;BME280;2057;50.858;6.572;2023-04-03T02:16:55;101620.88;;;3.80;91.60
4085;BME280;2057;50.858;6.572;2023-04-03T02:19:20;101620.59;;;3.76;91.21
4085;BME280;2057;50.858;6.572;2023-04-03T02:21:45;101619.84;;;3.77;91.54
4085;BME280;2057;50.858;6.572;2023-04-03T02:24:11;101611.84;;;3.73;91.31
4085;BME280;2057;50.858;6.572;2023-04-03T02:26:36;101617.22;;;3.67;90.99
4085;BME280;2057;50.858;6.572;2023-04-03T02:29:02;101615.88;;;3.62;91.26
4085;BME280;2057;50.858;6.572;2023-04-03T02:31:27;101613.66;;;3.65;91.07
4085;BME280;2057;50.858;6.572;2023-04-03T02:33:53;101617.06;;;3.57;91.34
4085;BME280;2057;50.858;6.572;2023-04-03T02:36:18;101615.72;;;3.52;91.49
4085;BME280;2057;50.858;6.572;2023-04-03T02:38:44;101616.78;;;3.45;92.26
4085;BME280;2057;50.858;6.572;2023-04-03T02:41:11;101611.00;;;3.55;92.11
4085;BME280;2057;50.858;6.572;2023-04-03T02:43:37;101612.63;;;3.28;93.22
4085;BME280;2057;50.858;6.572;2023-04-03T02:46:03;101611.59;;;3.26;93.48
4085;BME280;2057;50.858;6.572;2023-04-03T02:48:28;101614.56;;;3.30;93.91
4085;BME280;2057;50.858;6.572;2023-04-03T02:50:54;101620.91;;;3.27;94.06
4085;BME280;2057;50.858;6.572;2023-04-03T02:53:19;101609.84;;;3.25;93.50
4085;BME280;2057;50.858;6.572;2023-04-03T02:55:45;101615.44;;;3.22;93.15
4085;BME280;2057;50.858;6.572;2023-04-03T02:58:10;101622.22;;;3.23;92.70
4085;BME280;2057;50.858;6.572;2023-04-03T03:00:36;101621.78;;;3.19;92.83
4085;BME280;2057;50.858;6.572;2023-04-03T03:03:02;101621.34;;;3.14;93.05
4085;BME280;2057;50.858;6.572;2023-04-03T03:05:28;101618.38;;;3.09;93.04
4085;BME280;2057;50.858;6.572;2023-04-03T03:07:54;101616.75;;;3.01;92.70
4085;BME280;2057;50.858;6.572;2023-04-03T03:10:20;101622.34;;;2.98;92.30
4085;BME280;2057;50.858;6.572;2023-04-03T03:12:45;101616.31;;;3.05;93.12
4085;BME280;2057;50.858;6.572;2023-04-03T03:15:10;101618.66;;;2.95;92.95
4085;BME280;2057;50.858;6.572;2023-04-03T03:17:36;101619.53;;;2.95;93.61
4085;BME280;2057;50.858;6.572;2023-04-03T03:20:04;101623.69;;;2.95;93.25
4085;BME280;2057;50.858;6.572;2023-04-03T03:22:31;101617.34;;;2.98;93.05
4085;BME280;2057;50.858;6.572;2023-04-03T03:24:56;101619.25;;;3.01;93.12
4085;BME280;2057;50.858;6.572;2023-04-03T03:27:22;101614.53;;;2.87;93.08
4085;BME280;2057;50.858;6.572;2023-04-03T03:29:47;101619.59;;;3.22;91.84
4085;BME280;2057;50.858;6.572;2023-04-03T03:32:12;101616.47;;;3.07;92.34
4085;BME280;2057;50.858;6.572;2023-04-03T03:34:38;101615.97;;;2.76;93.92
4085;BME280;2057;50.858;6.572;2023-04-03T03:37:03;101607.81;;;2.70;94.93
4085;BME280;2057;50.858;6.572;2023-04-03T03:39:28;101611.66;;;2.66;95.15
4085;BME280;2057;50.858;6.572;2023-04-03T03:41:54;101612.09;;;2.71;95.73
4085;BME280;2057;50.858;6.572;2023-04-03T03:44:20;101610.19;;;2.68;95.26
4085;BME280;2057;50.858;6.572;2023-04-03T03:46:45;101605.47;;;2.62;95.64
4085;BME280;2057;50.858;6.572;2023-04-03T03:49:11;101608.13;;;2.64;95.62
4085;BME280;2057;50.858;6.572;2023-04-03T03:51:37;101618.63;;;2.77;96.09
4085;BME280;2057;50.858;6.572;2023-04-03T03:54:04;101618.63;;;2.69;95.36
4085;BME280;2057;50.858;6.572;2023-04-03T03:56:29;101621.22;;;2.61;95.42
4085;BME280;2057;50.858;6.572;2023-04-03T03:58:55;101618.31;;;2.65;95.52
4085;BME280;2057;50.858;6.572;2023-04-03T04:01:21;101617.53;;;2.58;94.98
4085;BME280;2057;50.858;6.572;2023-04-03T04:03:47;101614.59;;;2.62;95.09
4085;BME280;2057;50.858;6.572;2023-04-03T04:06:12;101618.19;;;2.73;94.89
4085;BME280;2057;50.858;6.572;2023-04-03T04:08:38;101620.22;;;2.68;94.62
4085;BME280;2057;50.858;6.572;2023-04-03T04:11:03;101621.53;;;2.56;95.04
4085;BME280;2057;50.858;6.572;2023-04-03T04:13:28;101613.88;;;2.63;94.56
4085;BME280;2057;50.858;6.572;2023-04-03T04:15:54;101619.31;;;2.59;94.81
4085;BME280;2057;50.858;6.572;2023-04-03T04:18:19;101618.63;;;2.77;95.25
4085;BME280;2057;50.858;6.572;2023-04-03T04:20:46;101630.44;;;2.78;94.35
4085;BME280;2057;50.858;6.572;2023-04-03T04:23:11;101627.34;;;2.81;94.35
4085;BME280;2057;50.858;6.572;2023-04-03T04:25:37;101625.28;;;2.77;95.19
4085;BME280;2057;50.858;6.572;2023-04-03T04:28:02;101622.47;;;2.82;94.06
4085;BME280;2057;50.858;6.572;2023-04-03T04:30:27;101623.50;;;2.76;94.72
4085;BME280;2057;50.858;6.572;2023-04-03T04:32:53;101629.25;;;2.83;94.52
4085;BME280;2057;50.858;6.572;2023-04-03T04:35:18;101632.50;;;2.82;94.20
4085;BME280;2057;50.858;6.572;2023-04-03T04:37:43;101631.75;;;2.75;94.06
4085;BME280;2057;50.858;6.572;2023-04-03T04:40:10;101628.59;;;2.60;94.53
4085;BME280;2057;50.858;6.572;2023-04-03T04:42:35;101637.00;;;2.60;94.45
4085;BME280;2057;50.858;6.572;2023-04-03T04:45:00;101640.69;;;3.06;93.56
4085;BME280;2057;50.858;6.572;2023-04-03T04:47:28;101643.03;;;3.22;90.65
4085;BME280;2057;50.858;6.572;2023-04-03T04:49:53;101639.00;;;2.80;91.37
4085;BME280;2057;50.858;6.572;2023-04-03T04:52:19;101648.25;;;2.64;91.37
4085;BME280;2057;50.858;6.572;2023-04-03T04:54:44;101650.91;;;2.65;93.13
4085;BME280;2057;50.858;6.572;2023-04-03T04:57:10;101651.66;;;2.73;92.76
4085;BME280;2057;50.858;6.572;2023-04-03T04:59:36;101656.97;;;2.67;93.17
4085;BME280;2057;50.858;6.572;2023-04-03T05:02:01;101654.88;;;2.63;92.55
4085;BME280;2057;50.858;6.572;2023-04-03T05:04:26;101660.59;;;2.62;93.24
4085;BME280;2057;50.858;6.572;2023-04-03T05:06:51;101668.72;;;2.60;93.08
4085;BME280;2057;50.858;6.572;2023-04-03T05:09:17;101668.13;;;2.62;92.29
4085;BME280;2057;50.858;6.572;2023-04-03T05:11:45;101666.34;;;2.53;92.43
4085;BME280;2057;50.858;6.572;2023-04-03T05:14:11;101668.69;;;2.51;93.55
4085;BME280;2057;50.858;6.572;2023-04-03T05:16:36;101671.56;;;2.72;92.77
4085;BME280;2057;50.858;6.572;2023-04-03T05:19:02;101676.50;;;2.88;93.43
4085;BME280;2057;50.858;6.572;2023-04-03T05:21:27;101668.41;;;2.99;92.76
4085;BME280;2057;50.858;6.572;2023-04-03T05:23:57;101675.06;;;3.16;91.87
4085;BME280;2057;50.858;6.572;2023-04-03T05:26:22;101676.69;;;3.07;91.96
4085;BME280;2057;50.858;6.572;2023-04-03T05:28:48;101674.31;;;3.00;92.32
4085;BME280;2057;50.858;6.572;2023-04-03T05:31:13;101679.59;;;2.94;92.55
4085;BME280;2057;50.858;6.572;2023-04-03T05:33:38;101683.94;;;3.12;92.45
4085;BME280;2057;50.858;6.572;2023-04-03T05:36:05;101687.03;;;3.19;92.15
4085;BME280;2057;50.858;6.572;2023-04-03T05:38:30;101689.06;;;3.05;92.94
4085;BME280;2057;50.858;6.572;2023-04-03T05:40:56;101683.59;;;3.01;93.06
4085;BME280;2057;50.858;6.572;2023-04-03T05:43:21;101691.13;;;3.09;93.04
4085;BME280;2057;50.858;6.572;2023-04-03T05:45:50;101692.03;;;3.19;92.36
4085;BME280;2057;50.858;6.572;2023-04-03T05:48:16;101690.59;;;3.21;92.18
4085;BME280;2057;50.858;6.572;2023-04-03T05:50:41;101703.41;;;3.15;93.02
4085;BME280;2057;50.858;6.572;2023-04-03T05:53:18;101702.94;;;3.02;93.33
4085;BME280;2057;50.858;6.572;2023-04-03T05:55:45;101709.28;;;2.98;92.56
4085;BME280;2057;50.858;6.572;2023-04-03T05:58:11;101710.59;;;2.94;92.08
4085;BME280;2057;50.858;6.572;2023-04-03T06:00:36;101713.09;;;2.94;92.27
4085;BME280;2057;50.858;6.572;2023-04-03T06:03:01;101707.63;;;2.90;92.66
4085;BME280;2057;50.858;6.572;2023-04-03T06:05:27;101715.44;;;2.93;92.67
4085;BME280;2057;50.858;6.572;2023-04-03T06:07:53;101706.03;;;2.99;92.41
4085;BME280;2057;50.858;6.572;2023-04-03T06:10:18;101714.28;;;2.98;92.69
4085;BME280;2057;50.858;6.572;2023-04-03T06:12:45;101717.34;;;2.87;92.60
4085;BME280;2057;50.858;6.572;2023-04-03T06:15:10;101715.69;;;2.78;94.12
4085;BME280;2057;50.858;6.572;2023-04-03T06:17:37;101718.41;;;2.89;93.24
4085;BME280;2057;50.858;6.572;2023-04-03T06:20:03;101718.06;;;2.77;93.33
4085;BME280;2057;50.858;6.572;2023-04-03T06:22:29;101717.28;;;2.78;93.56
4085;BME280;2057;50.858;6.572;2023-04-03T06:24:55;101722.84;;;3.00;94.71
4085;BME280;2057;50.858;6.572;2023-04-03T06:27:21;101718.19;;;3.21;93.46
4085;BME280;2057;50.858;6.572;2023-04-03T06:29:46;101723.53;;;3.24;92.53
4085;BME280;2057;50.858;6.572;2023-04-03T06:32:15;101721.31;;;3.36;92.91
4085;BME280;2057;50.858;6.572;2023-04-03T06:34:41;101717.34;;;3.38;92.46
4085;BME280;2057;50.858;6.572;2023-04-03T06:37:10;101719.81;;;3.20;92.29
4085;BME280;2057;50.858;6.572;2023-04-03T06:39:38;101719.69;;;3.27;92.64
4085;BME280;2057;50.858;6.572;2023-04-03T06:42:04;101719.97;;;3.30;92.72
4085;BME280;2057;50.858;6.572;2023-04-03T06:44:29;101724.56;;;3.43;92.90
4085;BME280;2057;50.858;6.572;2023-04-03T06:46:54;101725.63;;;3.54;92.00
4085;BME280;2057;50.858;6.572;2023-04-03T06:49:20;101726.22;;;3.60;92.30
4085;BME280;2057;50.858;6.572;2023-04-03T06:51:45;101725.63;;;3.63;91.87
4085;BME280;2057;50.858;6.572;2023-04-03T06:54:10;101728.59;;;3.59;91.56
4085;BME280;2057;50.858;6.572;2023-04-03T06:56:36;101720.00;;;3.48;91.93
4085;BME280;2057;50.858;6.572;2023-04-03T06:59:02;101731.38;;;3.53;91.37
4085;BME280;2057;50.858;6.572;2023-04-03T07:01:29;101720.03;;;3.57;90.12
4085;BME280;2057;50.858;6.572;2023-04-03T07:03:55;101726.34;;;3.62;89.24
4085;BME280;2057;50.858;6.572;2023-04-03T07:06:21;101727.56;;;3.57;89.70
4085;BME280;2057;50.858;6.572;2023-04-03T07:08:49;101725.63;;;3.63;89.71
4085;BME280;2057;50.858;6.572;2023-04-03T07:11:16;101722.22;;;3.71;88.88
4085;BME280;2057;50.858;6.572;2023-04-03T07:13:41;101731.38;;;3.53;88.96
4085;BME280;2057;50.858;6.572;2023-04-03T07:16:08;101732.00;;;3.77;88.71
4085;BME280;2057;50.858;6.572;2023-04-03T07:18:34;101731.69;;;3.74;89.24
4085;BME280;2057;50.858;6.572;2023-04-03T07:21:00;101733.91;;;3.88;89.17
4085;BME280;2057;50.858;6.572;2023-04-03T07:23:26;101732.41;;;3.90;88.05
4085;BME280;2057;50.858;6.572;2023-04-03T07:25:52;101730.38;;;3.86;87.22
4085;BME280;2057;50.858;6.572;2023-04-03T07:28:19;101727.97;;;4.14;88.94
4085;BME280;2057;50.858;6.572;2023-04-03T07:30:50;101730.22;;;4.02;88.29
4085;BME280;2057;50.858;6.572;2023-04-03T07:33:17;101734.81;;;3.98;87.38
4085;BME280;2057;50.858;6.572;2023-04-03T07:35:43;101732.28;;;4.15;87.14
4085;BME280;2057;50.858;6.572;2023-04-03T07:38:10;101740.34;;;4.30;86.61
4085;BME280;2057;50.858;6.572;2023-04-03T07:40:36;101738.28;;;4.44;85.17
4085;BME280;2057;50.858;6.572;2023-04-03T07:43:02;101737.72;;;4.37;85.81
4085;BME280;2057;50.858;6.572;2023-04-03T07:45:28;101739.00;;;4.34;86.43
4085;BME280;2057;50.858;6.572;2023-04-03T07:47:54;101742.16;;;4.22;85.60
4085;BME280;2057;50.858;6.572;2023-04-03T07:50:19;101738.56;;;4.38;86.26
4085;BME280;2057;50.858;6.572;2023-04-03T07:52:45;101740.78;;;4.44;86.82
4085;BME280;2057;50.858;6.572;2023-04-03T07:55:10;101747.47;;;4.34;85.39
4085;BME280;2057;50.858;6.572;2023-04-03T07:57:36;101749.38;;;4.46;85.44
4085;BME280;2057;50.858;6.572;2023-04-03T08:00:03;101750.38;;;4.48;85.25
4085;BME280;2057;50.858;6.572;2023-04-03T08:02:29;101760.72;;;4.51;85.38
4085;BME280;2057;50.858;6.572;2023-04-03T08:04:57;101756.56;;;4.60;84.65
4085;BME280;2057;50.858;6.572;2023-04-03T08:07:23;101748.41;;;4.71;84.23
4085;BME280;2057;50.858;6.572;2023-04-03T08:09:48;101751.72;;;4.98;82.74
4085;BME280;2057;50.858;6.572;2023-04-03T08:12:14;101751.41;;;4.95;83.62
4085;BME280;2057;50.858;6.572;2023-04-03T08:14:40;101758.91;;;5.04;83.38
4085;BME280;2057;50.858;6.572;2023-04-03T08:17:06;101743.34;;;5.08;81.81
4085;BME280;2057;50.858;6.572;2023-04-03T08:19:35;101754.63;;;5.03;82.02
4085;BME280;2057;50.858;6.572;2023-04-03T08:22:00;101754.03;;;5.06;82.58
4085;BME280;2057;50.858;6.572;2023-04-03T08:24:28;101755.75;;;5.15;82.47
4085;BME280;2057;50.858;6.572;2023-04-03T08:26:53;101753.56;;;5.38;82.93
4085;BME280;2057;50.858;6.572;2023-04-03T08:29:19;101761.50;;;5.70;81.86
4085;BME280;2057;50.858;6.572;2023-04-03T08:31:46;101760.91;;;5.45;80.41
4085;BME280;2057;50.858;6.572;2023-04-03T08:34:11;101763.56;;;4.91;82.29
4085;BME280;2057;50.858;6.572;2023-04-03T08:36:38;101760.63;;;4.86;83.12
4085;BME280;2057;50.858;6.572;2023-04-03T08:39:03;101758.47;;;4.99;81.96
4085;BME280;2057;50.858;6.572;2023-04-03T08:41:36;101757.66;;;5.18;82.55
4085;BME280;2057;50.858;6.572;2023-04-03T08:49:43;101759.34;;;5.37;78.15
4085;BME280;2057;50.858;6.572;2023-04-03T08:52:18;101759.31;;;5.45;77.72
4085;BME280;2057;50.858;6.572;2023-04-03T08:54:55;101761.53;;;5.61;77.28
4085;BME280;2057;50.858;6.572;2023-04-03T08:57:39;101758.16;;;5.61;75.30
4085;BME280;2057;50.858;6.572;2023-04-03T09:00:16;101763.94;;;5.60;75.01
4085;BME280;2057;50.858;6.572;2023-04-03T09:02:47;101755.88;;;5.45;77.34
4085;BME280;2057;50.858;6.572;2023-04-03T09:08:28;101764.66;;;5.40;77.32
4085;BME280;2057;50.858;6.572;2023-04-03T09:11:16;101757.72;;;5.94;75.16
4085;BME280;2057;50.858;6.572;2023-04-03T09:16:48;101771.13;;;6.42;73.21
4085;BME280;2057;50.858;6.572;2023-04-03T09:22:18;101769.09;;;6.38;70.08
4085;BME280;2057;50.858;6.572;2023-04-03T09:24:48;101768.56;;;6.61;71.27
4085;BME280;2057;50.858;6.572;2023-04-03T09:27:15;101766.88;;;6.51;69.76
4085;BME280;2057;50.858;6.572;2023-04-03T09:29:44;101765.78;;;6.68;67.85
4085;BME280;2057;50.858;6.572;2023-04-03T09:32:37;101765.59;;;6.86;68.04
4085;BME280;2057;50.858;6.572;2023-04-03T09:40:40;101759.25;;;7.31;68.39
4085;BME280;2057;50.858;6.572;2023-04-03T09:43:26;101757.19;;;7.16;67.96
4085;BME280;2057;50.858;6.572;2023-04-03T09:45:53;101752.16;;;7.37;66.53
4085;BME280;2057;50.858;6.572;2023-04-03T09:48:23;101754.66;;;7.27;65.75
4085;BME280;2057;50.858;6.572;2023-04-03T09:53:43;101751.00;;;7.23;67.15
4085;BME280;2057;50.858;6.572;2023-04-03T09:59:06;101745.69;;;6.99;67.07
4085;BME280;2057;50.858;6.572;2023-04-03T10:01:38;101747.47;;;7.31;66.86
4085;BME280;2057;50.858;6.572;2023-04-03T10:04:12;101747.47;;;7.21;64.82
4085;BME280;2057;50.858;6.572;2023-04-03T10:06:43;101747.09;;;7.37;64.16
4085;BME280;2057;50.858;6.572;2023-04-03T10:09:26;101747.38;;;7.40;63.06
4085;BME280;2057;50.858;6.572;2023-04-03T10:12:11;101744.47;;;7.35;62.33
4085;BME280;2057;50.858;6.572;2023-04-03T10:22:27;101745.94;;;7.75;60.92
4085;BME280;2057;50.858;6.572;2023-04-03T10:25:15;101749.66;;;8.00;62.50
4085;BME280;2057;50.858;6.572;2023-04-03T10:27:59;101736.94;;;7.89;62.36
4085;BME280;2057;50.858;6.572;2023-04-03T10:33:18;101733.59;;;8.10;62.42
4085;BME280;2057;50.858;6.572;2023-04-03T10:35:57;101727.91;;;8.03;61.85
4085;BME280;2057;50.858;6.572;2023-04-03T10:44:16;101732.31;;;8.15;54.42
4085;BME280;2057;50.858;6.572;2023-04-03T10:46:50;101733.03;;;8.25;57.90
4085;BME280;2057;50.858;6.572;2023-04-03T10:49:54;101723.09;;;8.38;58.33
4085;BME280;2057;50.858;6.572;2023-04-03T10:52:26;101742.00;;;8.31;57.65
4085;BME280;2057;50.858;6.572;2023-04-03T10:57:28;101724.25;;;8.64;57.15
4085;BME280;2057;50.858;6.572;2023-04-03T10:59:59;101720.56;;;8.48;57.04
4085;BME280;2057;50.858;6.572;2023-04-03T11:05:02;101711.13;;;8.58;56.88
4085;BME280;2057;50.858;6.572;2023-04-03T11:07:38;101711.97;;;9.03;55.01
4085;BME280;2057;50.858;6.572;2023-04-03T11:10:20;101711.59;;;9.20;58.97
4085;BME280;2057;50.858;6.572;2023-04-03T11:15:34;101708.03;;;9.06;53.68
4085;BME280;2057;50.858;6.572;2023-04-03T11:18:11;101701.06;;;8.47;55.21
4085;BME280;2057;50.858;6.572;2023-04-03T11:20:38;101697.63;;;8.57;57.73
4085;BME280;2057;50.858;6.572;2023-04-03T11:23:26;101697.53;;;8.68;56.83
4085;BME280;2057;50.858;6.572;2023-04-03T11:25:57;101694.47;;;8.72;56.11
4085;BME280;2057;50.858;6.572;2023-04-03T11:28:25;101698.25;;;8.55;52.71
4085;BME280;2057;50.858;6.572;2023-04-03T11:34:00;101689.16;;;8.69;53.52
4085;BME280;2057;50.858;6.572;2023-04-03T11:36:32;101681.81;;;9.06;56.15
4085;BME280;2057;50.858;6.572;2023-04-03T11:39:17;101674.72;;;8.90;51.93
4085;BME280;2057;50.858;6.572;2023-04-03T11:41:45;101679.63;;;8.76;53.57
4085;BME280;2057;50.858;6.572;2023-04-03T11:46:57;101674.88;;;8.69;54.36
4085;BME280;2057;50.858;6.572;2023-04-03T11:49:55;101675.88;;;9.05;56.83
4085;BME280;2057;50.858;6.572;2023-04-03T12:05:49;101649.47;;;9.61;53.52
4085;BME280;2057;50.858;6.572;2023-04-03T12:09:02;101645.06;;;9.70;54.02
4085;BME280;2057;50.858;6.572;2023-04-03T12:16:22;101649.91;;;9.67;50.36
4085;BME280;2057;50.858;6.572;2023-04-03T12:29:27;101635.13;;;9.85;47.93
4085;BME280;2057;50.858;6.572;2023-04-03T12:45:41;101610.50;;;10.45;49.96
4085;BME280;2057;50.858;6.572;2023-04-03T12:48:17;101605.84;;;10.51;49.28
4085;BME280;2057;50.858;6.572;2023-04-03T12:50:45;101599.97;;;10.27;49.75
4085;BME280;2057;50.858;6.572;2023-04-03T12:53:15;101609.28;;;10.52;50.07
4085;BME280;2057;50.858;6.572;2023-04-03T12:55:45;101603.13;;;10.62;47.46
4085;BME280;2057;50.858;6.572;2023-04-03T12:58:28;101603.59;;;10.56;47.15
4085;BME280;2057;50.858;6.572;2023-04-03T13:01:02;101602.06;;;10.58;46.94
4085;BME280;2057;50.858;6.572;2023-04-03T13:03:29;101606.38;;;10.59;47.86
4085;BME280;2057;50.858;6.572;2023-04-03T13:06:01;101595.75;;;10.78;47.64
4085;BME280;2057;50.858;6.572;2023-04-03T13:08:27;101602.28;;;10.75;48.34
4085;BME280;2057;50.858;6.572;2023-04-03T13:11:06;101591.28;;;10.74;49.27
4085;BME280;2057;50.858;6.572;2023-04-03T13:13:34;101591.31;;;10.62;48.21
4085;BME280;2057;50.858;6.572;2023-04-03T13:16:11;101590.44;;;10.62;47.33
4085;BME280;2057;50.858;6.572;2023-04-03T13:18:37;101585.72;;;10.93;48.04
4085;BME280;2057;50.858;6.572;2023-04-03T13:23:41;101580.56;;;11.32;47.38
4085;BME280;2057;50.858;6.572;2023-04-03T13:26:08;101581.44;;;10.92;46.38
4085;BME280;2057;50.858;6.572;2023-04-03T13:28:34;101575.75;;;10.83;47.88
4085;BME280;2057;50.858;6.572;2023-04-03T13:31:07;101582.50;;;10.96;45.98
4085;BME280;2057;50.858;6.572;2023-04-03T13:33:35;101566.56;;;10.98;47.19
4085;BME280;2057;50.858;6.572;2023-04-03T13:36:19;101564.41;;;10.78;46.65
4085;BME280;2057;50.858;6.572;2023-04-03T13:38:46;101577.22;;;10.93;46.03
4085;BME280;2057;50.858;6.572;2023-04-03T13:41:25;101569.50;;;10.91;47.45
4085;BME280;2057;50.858;6.572;2023-04-03T13:43:51;101567.25;;;10.96;46.82
4085;BME280;2057;50.858;6.572;2023-04-03T13:48:47;101567.34;;;11.65;47.04
4085;BME280;2057;50.858;6.572;2023-04-03T13:53:49;101550.41;;;11.65;44.14
4085;BME280;2057;50.858;6.572;2023-04-03T13:59:05;101546.91;;;12.05;45.99
4085;BME280;2057;50.858;6.572;2023-04-03T14:01:51;101543.84;;;12.11;45.25
4085;BME280;2057;50.858;6.572;2023-04-03T14:04:32;101547.97;;;12.08;44.34
4085;BME280;2057;50.858;6.572;2023-04-03T14:07:09;101546.53;;;11.99;45.24
4085;BME280;2057;50.858;6.572;2023-04-03T14:09:35;101536.34;;;12.27;45.13
4085;BME280;2057;50.858;6.572;2023-04-03T14:12:06;101536.72;;;12.63;45.90
4085;BME280;2057;50.858;6.572;2023-04-03T14:14:35;101535.66;;;12.75;44.37
4085;BME280;2057;50.858;6.572;2023-04-03T14:17:03;101531.28;;;12.72;44.79
4085;BME280;2057;50.858;6.572;2023-04-03T14:19:35;101535.63;;;12.30;43.42
4085;BME280;2057;50.858;6.572;2023-04-03T14:22:13;101526.44;;;12.62;44.20
4085;BME280;2057;50.858;6.572;2023-04-03T14:24:38;101528.72;;;12.72;46.40
4085;BME280;2057;50.858;6.572;2023-04-03T14:27:14;101529.09;;;13.25;44.36
4085;BME280;2057;50.858;6.572;2023-04-03T14:29:40;101519.03;;;13.11;44.20
4085;BME280;2057;50.858;6.572;2023-04-03T14:32:06;101523.22;;;13.26;42.05
4085;BME280;2057;50.858;6.572;2023-04-03T14:34:31;101516.56;;;12.98;41.88
4085;BME280;2057;50.858;6.572;2023-04-03T14:36:57;101515.19;;;12.73;43.34
4085;BME280;2057;50.858;6.572;2023-04-03T14:39:22;101511.31;;;12.20;41.85
4085;BME280;2057;50.858;6.572;2023-04-03T14:41:47;101512.75;;;12.60;43.42
4085;BME280;2057;50.858;6.572;2023-04-03T14:44:13;101508.13;;;12.99;42.08
4085;BME280;2057;50.858;6.572;2023-04-03T14:46:41;101500.91;;;13.22;41.59
4085;BME280;2057;50.858;6.572;2023-04-03T14:49:14;101503.72;;;13.11;40.44
4085;BME280;2057;50.858;6.572;2023-04-03T14:51:41;101503.94;;;12.99;41.51
4085;BME280;2057;50.858;6.572;2023-04-03T14:54:13;101505.31;;;13.09;42.40
4085;BME280;2057;50.858;6.572;2023-04-03T14:56:39;101507.16;;;12.97;43.47
4085;BME280;2057;50.858;6.572;2023-04-03T14:59:09;101507.47;;;12.57;42.03
4085;BME280;2057;50.858;6.572;2023-04-03T15:01:36;101498.63;;;13.11;42.48
4085;BME280;2057;50.858;6.572;2023-04-03T15:04:01;101490.38;;;13.80;41.22
4085;BME280;2057;50.858;6.572;2023-04-03T15:06:26;101484.19;;;14.42;42.13
4085;BME280;2057;50.858;6.572;2023-04-03T15:08:52;101489.03;;;13.54;44.66
4085;BME280;2057;50.858;6.572;2023-04-03T15:11:17;101488.84;;;14.17;43.37
4085;BME280;2057;50.858;6.572;2023-04-03T15:13:43;101483.84;;;13.69;42.11
4085;BME280;2057;50.858;6.572;2023-04-03T15:16:15;101478.09;;;13.56;41.23
4085;BME280;2057;50.858;6.572;2023-04-03T15:18:41;101476.13;;;14.00;41.34
4085;BME280;2057;50.858;6.572;2023-04-03T15:21:07;101483.47;;;13.14;41.61
4085;BME280;2057;50.858;6.572;2023-04-03T15:23:32;101486.06;;;13.46;42.80
4085;BME280;2057;50.858;6.572;2023-04-03T15:25:58;101485.84;;;13.91;42.10
4085;BME280;2057;50.858;6.572;2023-04-03T15:30:51;101476.63;;;14.80;41.00